Time;durP1;ratioP1;P1;durP2;ratioP2;P2;SDS_P1;SDS_P2;PMS_P1;PMS_P2;Temp;Humidity;BMP_temperature;BMP_pressure;BME280_temperature;BME280_humidity;BME280_pressure;Samples;Min_cycle;Max_cycle;Signal;HPM_P1;HPM_P2
2021/01/19 00:00:33;;;;;;;33.67;23.50;;;5.60;99.90;;;;;;6230977;23;20015;-90
2021/01/19 00:03:13;;;;;;;35.08;23.98;;;5.60;99.90;;;;;;6188176;23;20001;-91
2021/01/19 00:05:54;;;;;;;34.17;23.40;;;5.60;99.90;;;;;;6211275;23;20032;-90
2021/01/19 00:08:46;;;;;;;32.20;23.55;;;5.60;99.90;;;;;;6187037;23;20047;-91
2021/01/19 00:11:42;;;;;;;31.05;22.73;;;5.60;99.90;;;;;;6185959;23;20009;-90
2021/01/19 00:14:23;;;;;;;31.85;22.92;;;5.60;99.90;;;;;;6184489;23;20028;-91
2021/01/19 00:17:26;;;;;;;31.75;21.92;;;5.60;99.90;;;;;;6162058;23;20047;-91
2021/01/19 00:20:01;;;;;;;27.73;21.45;;;5.60;99.90;;;;;;6187267;23;20016;-92
2021/01/19 00:22:49;;;;;;;26.73;19.20;;;5.60;99.90;;;;;;6187560;23;20215;-92
2021/01/19 00:25:41;;;;;;;29.58;18.98;;;5.60;99.90;;;;;;6186075;23;20023;-91
2021/01/19 00:28:15;;;;;;;25.88;18.25;;;5.60;99.90;;;;;;6186867;23;20070;-90
2021/01/19 00:30:44;;;;;;;30.65;18.05;;;5.50;99.90;;;;;;6163304;23;20040;-91
2021/01/19 00:33:11;;;;;;;29.27;16.60;;;5.50;99.90;;;;;;6186943;23;20012;-90
2021/01/19 00:35:48;;;;;;;27.35;15.43;;;5.50;99.90;;;;;;6187175;23;20016;-92
2021/01/19 00:38:19;;;;;;;28.35;14.73;;;5.50;99.90;;;;;;6213683;23;20005;-91
2021/01/19 00:40:55;;;;;;;20.65;13.85;;;5.50;99.90;;;;;;6186786;23;20111;-91
2021/01/19 00:43:21;;;;;;;23.60;13.75;;;5.50;99.90;;;;;;6187573;23;20022;-92
2021/01/19 00:45:48;;;;;;;23.05;13.38;;;5.50;99.90;;;;;;6186428;23;20087;-91
2021/01/19 00:48:25;;;;;;;20.88;13.23;;;5.50;99.90;;;;;;6186786;23;20008;-92
2021/01/19 00:51:11;;;;;;;20.30;11.98;;;5.50;99.90;;;;;;6186730;23;20070;-91
2021/01/19 00:53:49;;;;;;;21.10;13.63;;;5.40;99.90;;;;;;6186671;23;20004;-92
2021/01/19 00:56:16;;;;;;;23.25;11.23;;;5.40;99.90;;;;;;6162757;23;20016;-93
2021/01/19 00:58:44;;;;;;;16.60;11.10;;;5.40;99.90;;;;;;6186450;23;20308;-91
2021/01/19 01:01:18;;;;;;;20.75;10.18;;;5.40;99.90;;;;;;6161786;23;20016;-92
2021/01/19 01:03:54;;;;;;;16.60;9.60;;;5.40;99.90;;;;;;6161072;23;20383;-90
2021/01/19 01:06:32;;;;;;;15.93;9.60;;;5.40;99.90;;;;;;6163570;23;20036;-91
2021/01/19 01:09:00;;;;;;;18.15;8.75;;;5.40;99.90;;;;;;6186619;23;20005;-92
2021/01/19 01:11:46;;;;;;;21.77;9.05;;;5.40;99.90;;;;;;6188041;23;20058;-91
2021/01/19 01:14:14;;;;;;;17.60;7.80;;;5.40;99.90;;;;;;6165639;23;20009;-90
2021/01/19 01:16:46;;;;;;;18.75;8.25;;;5.40;99.90;;;;;;6161558;23;20508;-92
2021/01/19 01:19:19;;;;;;;16.75;6.80;;;5.40;99.90;;;;;;6186064;23;20429;-92
2021/01/19 01:21:50;;;;;;;16.48;6.95;;;5.40;99.90;;;;;;6187605;23;20005;-93
2021/01/19 01:24:16;;;;;;;16.20;7.30;;;5.40;99.90;;;;;;6187088;23;20025;-92
2021/01/19 01:26:45;;;;;;;17.92;6.43;;;5.40;99.90;;;;;;6186359;23;20059;-90
2021/01/19 01:29:21;;;;;;;19.98;6.75;;;5.40;99.90;;;;;;6213016;23;20326;-91
2021/01/19 01:31:59;;;;;;;17.25;6.50;;;5.30;99.90;;;;;;6137990;23;20016;-91
2021/01/19 01:34:44;;;;;;;16.25;5.93;;;5.30;99.90;;;;;;6161508;23;20104;-91
2021/01/19 01:37:11;;;;;;;15.32;5.60;;;5.30;99.90;;;;;;6184664;23;20028;-91
2021/01/19 01:39:48;;;;;;;13.25;6.07;;;5.30;99.90;;;;;;6186751;23;20007;-91
2021/01/19 01:42:24;;;;;;;16.10;5.20;;;5.30;99.90;;;;;;6213131;23;20004;-92
2021/01/19 01:44:55;;;;;;;16.92;5.85;;;5.30;99.90;;;;;;6211405;23;20043;-93
2021/01/19 01:47:27;;;;;;;15.50;4.70;;;5.30;99.90;;;;;;6186687;23;20457;-91
2021/01/19 01:49:54;;;;;;;16.35;4.72;;;5.30;99.90;;;;;;6185749;23;20091;-92
2021/01/19 01:52:32;;;;;;;13.38;5.18;;;5.30;99.90;;;;;;6166378;23;20014;-91
2021/01/19 01:55:04;;;;;;;16.10;4.90;;;5.30;99.90;;;;;;6192164;23;20005;-92
2021/01/19 01:57:38;;;;;;;15.80;5.45;;;5.20;99.90;;;;;;6190241;23;20013;-90
2021/01/19 02:00:10;;;;;;;13.75;4.32;;;5.20;99.90;;;;;;6216209;23;20013;-92
2021/01/19 02:02:56;;;;;;;19.13;5.65;;;5.20;99.90;;;;;;6184384;23;20058;-92
2021/01/19 02:05:23;;;;;;;14.07;4.38;;;5.20;99.90;;;;;;6217547;23;20007;-92
2021/01/19 02:08:36;;;;;;;15.50;4.63;;;5.10;99.90;;;;;;6167367;23;20012;-92
2021/01/19 02:11:05;;;;;;;15.88;5.05;;;5.10;99.90;;;;;;6209765;23;20066;-91
2021/01/19 02:14:03;;;;;;;16.25;4.00;;;5.10;99.90;;;;;;6191204;23;20000;-91
2021/01/19 02:16:53;;;;;;;14.00;4.00;;;5.10;99.90;;;;;;6191494;23;20012;-91
2021/01/19 02:19:41;;;;;;;14.25;3.78;;;5.10;99.90;;;;;;6191752;23;20009;-91
2021/01/19 02:22:27;;;;;;;11.43;3.67;;;5.10;99.90;;;;;;6191196;23;20055;-91
2021/01/19 02:25:27;;;;;;;16.45;3.80;;;5.20;99.90;;;;;;6144298;23;20442;-92
2021/01/19 02:28:19;;;;;;;13.02;3.50;;;5.20;99.90;;;;;;6188015;23;20081;-92
2021/01/19 02:31:06;;;;;;;13.23;3.25;;;5.20;99.90;;;;;;6187819;23;20076;-92
2021/01/19 02:33:53;;;;;;;12.65;3.40;;;5.20;99.90;;;;;;6162011;23;20008;-92
2021/01/19 02:36:47;;;;;;;12.23;3.17;;;5.20;99.90;;;;;;6161561;23;20410;-93
2021/01/19 02:39:20;;;;;;;10.07;3.22;;;5.20;99.90;;;;;;6186245;23;20012;-93
2021/01/19 02:41:52;;;;;;;13.98;4.40;;;5.20;99.90;;;;;;6161021;23;20112;-93
2021/01/19 02:44:26;;;;;;;16.77;3.60;;;5.20;99.90;;;;;;6185768;23;20020;-91
2021/01/19 02:46:58;;;;;;;9.85;3.17;;;5.20;99.90;;;;;;6185107;23;20024;-90
2021/01/19 02:49:25;;;;;;;9.98;3.20;;;5.20;99.90;;;;;;6185985;23;20005;-91
2021/01/19 02:52:00;;;;;;;10.93;2.92;;;5.20;99.90;;;;;;6186357;23;20001;-91
2021/01/19 02:54:28;;;;;;;9.80;3.20;;;5.20;99.90;;;;;;6187451;23;19997;-91
2021/01/19 02:56:58;;;;;;;10.00;3.38;;;5.20;99.90;;;;;;6160940;23;20032;-91
2021/01/19 02:59:45;;;;;;;12.88;3.35;;;5.10;99.90;;;;;;6184405;23;20009;-91
2021/01/19 03:02:20;;;;;;;11.93;3.70;;;5.10;99.90;;;;;;6161473;23;20059;-93
2021/01/19 03:04:51;;;;;;;11.75;3.47;;;5.10;99.90;;;;;;6161195;23;20005;-92
2021/01/19 03:07:25;;;;;;;9.15;3.20;;;5.00;99.90;;;;;;6161676;23;20005;-91
2021/01/19 03:09:53;;;;;;;15.52;4.40;;;5.00;99.90;;;;;;6137532;23;20442;-90
2021/01/19 03:12:35;;;;;;;17.52;4.47;;;5.00;99.90;;;;;;6114815;23;20025;-90
2021/01/19 03:15:03;;;;;;;16.67;4.25;;;5.00;99.90;;;;;;6187209;23;20009;-91
2021/01/19 03:17:32;;;;;;;12.50;3.90;;;5.00;99.90;;;;;;6160577;23;20017;-90
2021/01/19 03:20:01;;;;;;;16.70;4.78;;;5.00;99.90;;;;;;6185539;23;20009;-90
2021/01/19 03:22:27;;;;;;;21.35;5.28;;;5.00;99.90;;;;;;6112292;23;20040;-90
2021/01/19 03:24:52;;;;;;;13.55;4.93;;;5.00;99.90;;;;;;6177951;23;20016;-91
2021/01/19 03:27:18;;;;;;;12.52;5.10;;;4.90;99.90;;;;;;6190524;23;20321;-89
2021/01/19 03:29:43;;;;;;;21.20;5.78;;;4.90;99.90;;;;;;6190432;23;20009;-90
2021/01/19 03:32:18;;;;;;;17.30;5.47;;;4.80;99.90;;;;;;6190526;23;20027;-90
2021/01/19 03:34:44;;;;;;;18.58;5.68;;;4.70;99.90;;;;;;6190785;23;20059;-89
2021/01/19 03:37:10;;;;;;;15.73;6.70;;;4.70;99.90;;;;;;6165299;23;20337;-90
2021/01/19 03:39:37;;;;;;;17.58;6.03;;;4.60;99.90;;;;;;6165730;23;20016;-90
2021/01/19 03:42:04;;;;;;;17.60;7.25;;;4.70;99.90;;;;;;6217020;23;20001;-89
2021/01/19 03:44:34;;;;;;;15.07;6.53;;;4.60;99.90;;;;;;6190336;23;20021;-89
2021/01/19 03:47:00;;;;;;;18.00;6.43;;;4.60;99.90;;;;;;6191719;23;20036;-89
2021/01/19 03:49:26;;;;;;;19.85;7.22;;;4.60;99.90;;;;;;6190774;23;20002;-90
2021/01/19 03:51:52;;;;;;;17.50;6.78;;;4.60;99.90;;;;;;6190454;23;20059;-90
2021/01/19 03:54:19;;;;;;;22.10;7.82;;;4.60;99.90;;;;;;6216568;23;20110;-89
2021/01/19 03:57:00;;;;;;;21.42;7.88;;;4.50;99.90;;;;;;6192984;23;20016;-90
2021/01/19 03:59:32;;;;;;;15.35;7.47;;;4.50;99.90;;;;;;6190577;23;20009;-90
2021/01/19 04:01:58;;;;;;;23.05;8.73;;;4.50;99.90;;;;;;6169059;23;20012;-89
2021/01/19 04:04:23;;;;;;;18.52;7.93;;;4.50;99.90;;;;;;6192308;23;20091;-90
2021/01/19 04:06:50;;;;;;;16.10;7.93;;;4.50;99.90;;;;;;6218387;23;20001;-90
2021/01/19 04:09:16;;;;;;;20.30;9.77;;;4.50;99.90;;;;;;6192118;23;20437;-90
2021/01/19 04:11:44;;;;;;;23.77;9.93;;;4.50;99.90;;;;;;6191272;23;20001;-90
2021/01/19 04:14:10;;;;;;;23.42;10.13;;;4.50;99.90;;;;;;6191622;23;20032;-89
2021/01/19 04:16:36;;;;;;;21.73;10.15;;;4.50;99.90;;;;;;6191721;23;20302;-89
2021/01/19 04:19:01;;;;;;;22.02;11.30;;;4.50;99.90;;;;;;6191560;23;20005;-88
2021/01/19 04:21:32;;;;;;;21.40;10.75;;;4.40;99.90;;;;;;6190635;23;20001;-89
2021/01/19 04:24:06;;;;;;;25.25;11.55;;;4.40;99.90;;;;;;6188625;23;20013;-90
2021/01/19 04:26:34;;;;;;;24.65;12.55;;;4.50;99.90;;;;;;6192034;23;20040;-88
2021/01/19 04:29:06;;;;;;;21.13;11.60;;;4.50;99.90;;;;;;6191482;23;20016;-88
2021/01/19 04:31:33;;;;;;;26.83;12.13;;;4.50;99.90;;;;;;6191782;23;20012;-89
2021/01/19 04:34:02;;;;;;;18.17;10.10;;;4.50;99.90;;;;;;6167258;23;20328;-88
2021/01/19 04:36:30;;;;;;;21.73;12.27;;;4.50;99.90;;;;;;6218158;23;20012;-89
2021/01/19 04:38:55;;;;;;;20.23;11.63;;;4.50;99.90;;;;;;6166750;23;20017;-91
2021/01/19 04:41:21;;;;;;;20.85;10.90;;;4.50;99.90;;;;;;6191275;23;20036;-89
2021/01/19 04:43:47;;;;;;;22.58;11.55;;;4.60;99.90;;;;;;6166828;23;20035;-90
2021/01/19 04:46:14;;;;;;;24.55;12.75;;;4.50;99.90;;;;;;6191421;23;20059;-89
2021/01/19 04:48:44;;;;;;;20.38;11.27;;;4.50;99.90;;;;;;6190897;23;20031;-89
2021/01/19 04:51:17;;;;;;;20.02;11.48;;;4.50;99.90;;;;;;6166840;23;20005;-88
2021/01/19 04:53:49;;;;;;;18.85;11.73;;;4.60;99.90;;;;;;6191876;23;20012;-89
2021/01/19 04:56:20;;;;;;;22.67;12.88;;;4.60;99.90;;;;;;6191421;23;20032;-88
2021/01/19 04:58:53;;;;;;;19.55;12.15;;;4.60;99.90;;;;;;6218560;23;20007;-88
2021/01/19 05:02:00;;;;;;;23.40;12.05;;;4.60;99.90;;;;;;6216908;23;20004;-89
2021/01/19 05:04:47;;;;;;;19.73;12.15;;;4.60;99.90;;;;;;6216601;23;20015;-89
2021/01/19 05:07:33;;;;;;;25.85;12.85;;;4.60;99.90;;;;;;6191973;23;20084;-90
2021/01/19 05:10:14;;;;;;;17.15;11.25;;;4.60;99.90;;;;;;6192335;23;20413;-89
2021/01/19 05:12:45;;;;;;;20.67;12.10;;;4.60;99.90;;;;;;6191104;23;20013;-91
2021/01/19 05:15:16;;;;;;;20.58;13.57;;;4.60;99.90;;;;;;6191432;23;20003;-90
2021/01/19 05:17:43;;;;;;;19.67;11.43;;;4.60;99.90;;;;;;6165962;23;20012;-89
2021/01/19 05:20:11;;;;;;;18.58;11.80;;;4.60;99.90;;;;;;6166404;23;20043;-90
2021/01/19 05:22:40;;;;;;;16.83;10.52;;;4.60;99.90;;;;;;6216024;23;20076;-90
2021/01/19 05:25:13;;;;;;;18.67;11.73;;;4.60;99.90;;;;;;6190764;23;20108;-90
2021/01/19 05:27:38;;;;;;;17.47;11.03;;;4.60;99.90;;;;;;6191548;23;20004;-91
2021/01/19 05:30:07;;;;;;;15.65;11.77;;;4.60;99.90;;;;;;6217344;23;20000;-90
2021/01/19 05:32:49;;;;;;;17.23;11.98;;;4.60;99.90;;;;;;6190952;23;20001;-89
2021/01/19 05:35:17;;;;;;;22.25;13.55;;;4.70;99.90;;;;;;6191173;23;20024;-90
2021/01/19 05:37:56;;;;;;;16.85;11.32;;;4.60;99.90;;;;;;6191368;23;20012;-91
2021/01/19 05:40:26;;;;;;;17.13;10.38;;;4.70;99.90;;;;;;6191127;23;20418;-90
2021/01/19 05:42:56;;;;;;;18.33;10.65;;;4.70;99.90;;;;;;6192578;23;20001;-90
2021/01/19 05:45:22;;;;;;;15.98;10.88;;;4.70;99.90;;;;;;6190253;23;20009;-89
2021/01/19 05:47:54;;;;;;;15.13;10.80;;;4.70;99.90;;;;;;6216036;23;20104;-91
2021/01/19 05:50:20;;;;;;;17.65;10.82;;;4.70;99.90;;;;;;6217481;23;20004;-90
2021/01/19 05:52:50;;;;;;;16.35;9.85;;;4.70;99.90;;;;;;6165554;23;20400;-90
2021/01/19 05:55:27;;;;;;;15.27;10.88;;;4.80;99.90;;;;;;6190998;23;20333;-90
2021/01/19 05:57:59;;;;;;;17.58;9.90;;;4.80;99.90;;;;;;6190891;23;20385;-89
2021/01/19 06:00:28;;;;;;;14.53;10.17;;;4.80;99.90;;;;;;6188039;23;20019;-90
2021/01/19 06:03:12;;;;;;;17.70;10.93;;;4.80;99.90;;;;;;6188226;23;20007;-90
2021/01/19 06:05:38;;;;;;;13.65;9.90;;;4.80;99.90;;;;;;6209452;23;20008;-91
2021/01/19 06:08:08;;;;;;;13.30;10.07;;;4.80;99.90;;;;;;6187920;23;20310;-90
2021/01/19 06:10:35;;;;;;;16.88;10.77;;;4.90;99.90;;;;;;6164078;23;20009;-89
2021/01/19 06:13:02;;;;;;;15.07;11.02;;;4.90;99.90;;;;;;6163601;23;20013;-89
2021/01/19 06:15:29;;;;;;;14.85;11.43;;;4.80;99.90;;;;;;6165415;23;20005;-89
2021/01/19 06:17:55;;;;;;;16.50;10.80;;;4.90;99.90;;;;;;6216779;23;20016;-89
2021/01/19 06:20:21;;;;;;;14.55;10.32;;;4.90;99.90;;;;;;6189792;23;20028;-91
2021/01/19 06:22:50;;;;;;;14.77;10.30;;;4.90;99.90;;;;;;6189832;23;20040;-90
2021/01/19 06:25:17;;;;;;;15.88;11.30;;;4.90;99.90;;;;;;6216552;23;20017;-90
2021/01/19 06:27:50;;;;;;;14.00;10.68;;;5.00;99.90;;;;;;6189572;23;20143;-90
2021/01/19 06:30:16;;;;;;;15.25;10.27;;;5.00;99.90;;;;;;6189982;23;20023;-90
2021/01/19 06:32:46;;;;;;;12.50;10.15;;;5.00;99.90;;;;;;6189148;23;20007;-91
2021/01/19 06:35:41;;;;;;;15.02;9.40;;;5.00;99.90;;;;;;6190194;23;20004;-90
2021/01/19 06:38:07;;;;;;;11.45;8.68;;;5.00;99.90;;;;;;6188372;23;20012;-89
2021/01/19 06:40:36;;;;;;;13.13;8.82;;;5.10;99.90;;;;;;6190325;23;20402;-90
2021/01/19 06:43:04;;;;;;;12.38;8.68;;;5.10;99.90;;;;;;6216946;23;20005;-89
2021/01/19 06:45:36;;;;;;;12.38;9.02;;;5.10;99.90;;;;;;6190407;23;20004;-90
2021/01/19 06:48:04;;;;;;;13.23;8.68;;;5.10;99.90;;;;;;6165430;23;20005;-89
2021/01/19 06:50:34;;;;;;;11.13;9.05;;;5.10;99.90;;;;;;6189332;23;20011;-90
2021/01/19 06:53:09;;;;;;;12.90;10.48;;;5.10;99.90;;;;;;6217219;23;20005;-89
2021/01/19 06:55:58;;;;;;;11.80;9.57;;;5.10;99.90;;;;;;6190432;23;20008;-90
2021/01/19 06:58:39;;;;;;;13.07;10.85;;;5.20;99.90;;;;;;6190148;23;20005;-89
2021/01/19 07:01:14;;;;;;;12.90;9.60;;;5.20;99.90;;;;;;6216659;23;20059;-90
2021/01/19 07:03:42;;;;;;;13.68;10.30;;;5.20;99.90;;;;;;6189950;23;19997;-90
2021/01/19 07:06:17;;;;;;;10.85;9.20;;;5.20;99.90;;;;;;6189296;23;19997;-89
2021/01/19 07:09:25;;;;;;;12.45;9.75;;;5.20;99.90;;;;;;6189990;23;20055;-90
2021/01/19 07:12:02;;;;;;;12.60;8.55;;;5.30;99.90;;;;;;6154302;23;20001;-89
2021/01/19 07:15:14;;;;;;;11.80;8.52;;;5.30;99.90;;;;;;6216741;23;20007;-88
2021/01/19 07:18:01;;;;;;;13.25;8.68;;;5.30;99.90;;;;;;6184417;23;20009;-88
2021/01/19 07:20:32;;;;;;;10.82;8.70;;;5.30;99.90;;;;;;6189882;23;20058;-88
2021/01/19 07:23:10;;;;;;;11.73;8.18;;;5.30;99.90;;;;;;6190180;23;20005;-89
2021/01/19 07:25:37;;;;;;;11.52;8.35;;;5.40;99.90;;;;;;6191516;23;20039;-87
2021/01/19 07:28:15;;;;;;;12.45;8.40;;;5.30;99.90;;;;;;6189281;23;20015;-89
2021/01/19 07:30:41;;;;;;;11.23;8.13;;;5.40;99.90;;;;;;6164727;23;20017;-89
2021/01/19 07:33:10;;;;;;;12.25;8.85;;;5.40;99.90;;;;;;6164900;23;20012;-89
2021/01/19 07:35:37;;;;;;;11.05;8.23;;;5.40;99.90;;;;;;6191692;23;20402;-89
2021/01/19 07:38:02;;;;;;;13.10;9.27;;;5.40;99.90;;;;;;6191743;23;20066;-88
2021/01/19 07:40:28;;;;;;;12.50;8.95;;;5.50;99.90;;;;;;6191638;23;20021;-90
2021/01/19 07:42:54;;;;;;;14.05;8.32;;;5.50;99.90;;;;;;6191160;23;20505;-89
2021/01/19 07:45:31;;;;;;;8.32;7.30;;;5.50;99.90;;;;;;6217636;23;20084;-89
2021/01/19 07:48:08;;;;;;;10.35;7.60;;;5.50;99.90;;;;;;6219504;23;20004;-89
2021/01/19 07:50:44;;;;;;;12.65;8.13;;;5.50;99.90;;;;;;6168209;23;20063;-89
2021/01/19 07:53:11;;;;;;;11.43;7.63;;;5.60;99.90;;;;;;6191556;23;20005;-89
2021/01/19 07:55:46;;;;;;;10.40;7.22;;;5.60;99.90;;;;;;6192403;23;20313;-90
2021/01/19 07:58:22;;;;;;;11.10;7.43;;;5.60;99.90;;;;;;6191502;23;20015;-89
2021/01/19 08:00:57;;;;;;;10.80;6.95;;;5.60;99.90;;;;;;6167819;23;20005;-89
2021/01/19 08:03:30;;;;;;;8.23;6.32;;;5.70;99.90;;;;;;6185037;23;20449;-89
2021/01/19 08:06:39;;;;;;;11.40;6.35;;;5.70;99.90;;;;;;6218950;23;20004;-88
2021/01/19 08:09:16;;;;;;;9.93;6.35;;;5.70;99.90;;;;;;6191404;23;20094;-89
2021/01/19 08:11:43;;;;;;;9.23;5.95;;;5.80;99.90;;;;;;6192070;23;20011;-89
2021/01/19 08:14:12;;;;;;;8.13;6.40;;;5.80;99.90;;;;;;6192436;23;20055;-90
2021/01/19 08:16:47;;;;;;;7.70;6.38;;;5.80;99.90;;;;;;6219656;23;20009;-90
2021/01/19 08:19:16;;;;;;;9.65;6.07;;;5.80;99.90;;;;;;6222630;23;20004;-89
2021/01/19 08:21:53;;;;;;;9.30;6.40;;;5.80;99.90;;;;;;6196033;23;20004;-88
2021/01/19 08:24:21;;;;;;;7.95;6.53;;;5.80;99.90;;;;;;6167116;23;20100;-88
2021/01/19 08:26:47;;;;;;;9.50;5.97;;;5.90;99.90;;;;;;6222718;23;20010;-89
2021/01/19 08:29:17;;;;;;;8.63;5.82;;;5.90;99.90;;;;;;6171746;23;20462;-88
2021/01/19 08:31:53;;;;;;;8.93;6.45;;;5.90;99.90;;;;;;6171345;23;20009;-89
2021/01/19 08:34:22;;;;;;;9.38;6.03;;;6.00;99.90;;;;;;6166079;23;20009;-88
2021/01/19 08:37:01;;;;;;;8.57;6.30;;;6.00;99.90;;;;;;6195063;23;20020;-89
2021/01/19 08:39:28;;;;;;;11.77;7.07;;;6.00;99.90;;;;;;6192374;23;20142;-88
2021/01/19 08:41:55;;;;;;;9.00;6.45;;;6.10;99.90;;;;;;6166553;23;20001;-89
2021/01/19 08:44:21;;;;;;;10.02;6.53;;;6.10;99.90;;;;;;6191221;23;20032;-88
2021/01/19 08:46:48;;;;;;;9.52;6.10;;;6.10;99.90;;;;;;6192046;23;20009;-90
2021/01/19 08:49:18;;;;;;;12.55;6.78;;;6.20;99.90;;;;;;6192644;23;20005;-88
2021/01/19 08:51:53;;;;;;;9.13;6.40;;;6.10;99.90;;;;;;6167813;23;20334;-88
2021/01/19 08:54:20;;;;;;;10.07;7.85;;;6.20;99.90;;;;;;6168395;23;20114;-88
2021/01/19 08:56:46;;;;;;;7.95;6.30;;;6.20;99.90;;;;;;6192001;23;20012;-89
2021/01/19 08:59:15;;;;;;;8.32;5.97;;;6.20;99.90;;;;;;6169123;23;20398;-89
2021/01/19 09:01:53;;;;;;;7.93;6.90;;;6.20;99.90;;;;;;6192620;23;20008;-89
2021/01/19 09:04:27;;;;;;;11.20;6.15;;;6.30;99.90;;;;;;6192691;23;20035;-89
2021/01/19 09:07:04;;;;;;;7.70;6.57;;;6.30;99.90;;;;;;6192696;23;20005;-87
2021/01/19 09:09:30;;;;;;;8.07;6.65;;;6.30;99.90;;;;;;6167643;23;20008;-89
2021/01/19 09:11:59;;;;;;;8.98;6.97;;;6.30;99.90;;;;;;6167302;23;20035;-88
2021/01/19 09:14:28;;;;;;;8.30;6.53;;;6.40;99.90;;;;;;6193116;23;20019;-89
2021/01/19 09:16:55;;;;;;;10.88;6.63;;;6.40;99.90;;;;;;6193745;23;20422;-89
2021/01/19 09:19:21;;;;;;;7.45;6.28;;;6.40;99.90;;;;;;6143004;23;20019;-88
2021/01/19 09:21:47;;;;;;;7.82;6.18;;;6.40;99.90;;;;;;6191827;23;20000;-87
2021/01/19 09:24:24;;;;;;;9.10;6.25;;;6.50;99.90;;;;;;6189494;23;20001;-89
2021/01/19 09:27:01;;;;;;;9.18;6.65;;;6.40;99.90;;;;;;6163158;23;20020;-88
2021/01/19 09:29:35;;;;;;;10.02;6.88;;;6.50;99.90;;;;;;6189030;23;20011;-88
2021/01/19 09:32:05;;;;;;;6.85;5.80;;;6.50;99.90;;;;;;6162541;23;20037;-88
2021/01/19 09:34:35;;;;;;;8.00;6.32;;;6.50;99.90;;;;;;6163101;23;20064;-89
2021/01/19 09:37:28;;;;;;;9.15;6.43;;;6.50;99.90;;;;;;6188181;23;20017;-88
2021/01/19 09:39:54;;;;;;;7.38;6.50;;;6.60;99.90;;;;;;6139845;23;20055;-88
2021/01/19 09:42:21;;;;;;;8.70;6.70;;;6.60;99.90;;;;;;6162705;23;20501;-88
2021/01/19 09:44:53;;;;;;;8.43;6.22;;;6.60;99.90;;;;;;6137914;23;20031;-90
2021/01/19 09:47:24;;;;;;;7.43;6.60;;;6.60;99.90;;;;;;6162521;23;20005;-88
2021/01/19 09:49:53;;;;;;;8.95;7.03;;;6.70;99.90;;;;;;6188971;23;20013;-88
2021/01/19 09:52:28;;;;;;;9.00;6.78;;;6.70;99.90;;;;;;6185402;23;20012;-90
2021/01/19 09:55:14;;;;;;;9.40;7.50;;;6.70;99.90;;;;;;6140757;23;20084;-89
2021/01/19 09:57:41;;;;;;;8.30;7.10;;;6.80;99.90;;;;;;6162936;23;20041;-88
2021/01/19 10:00:10;;;;;;;10.63;8.55;;;6.80;99.90;;;;;;6137982;23;20013;-88
2021/01/19 10:02:38;;;;;;;9.13;7.35;;;6.80;99.90;;;;;;6162693;23;20021;-90
2021/01/19 10:05:05;;;;;;;10.57;8.18;;;6.90;99.90;;;;;;6138288;23;20028;-90
2021/01/19 10:07:37;;;;;;;9.30;7.93;;;6.90;99.90;;;;;;6184857;23;20381;-89
2021/01/19 10:10:10;;;;;;;11.98;7.25;;;7.00;99.90;;;;;;6162429;23;20066;-88
2021/01/19 10:12:38;;;;;;;11.02;7.95;;;7.00;99.90;;;;;;6162835;23;20001;-87
2021/01/19 10:15:08;;;;;;;9.07;7.53;;;7.00;99.90;;;;;;6162352;23;20001;-87
2021/01/19 10:17:36;;;;;;;9.43;8.25;;;7.10;99.90;;;;;;6149134;23;20013;-87
2021/01/19 10:20:16;;;;;;;8.82;7.93;;;7.20;99.90;;;;;;6162426;23;20497;-88
2021/01/19 10:22:56;;;;;;;10.18;7.93;;;7.20;99.90;;;;;;6162960;23;20076;-89
2021/01/19 10:25:29;;;;;;;10.10;8.00;;;7.20;99.90;;;;;;6174429;23;20021;-88
2021/01/19 10:28:01;;;;;;;10.40;8.77;;;7.30;99.90;;;;;;6189277;23;20011;-87
2021/01/19 10:30:36;;;;;;;10.30;9.15;;;7.30;99.90;;;;;;6190892;23;20417;-87
2021/01/19 10:33:08;;;;;;;11.10;8.70;;;7.30;99.90;;;;;;6190660;23;20004;-87
2021/01/19 10:35:36;;;;;;;11.60;10.40;;;7.40;99.90;;;;;;6216865;23;20429;-88
2021/01/19 10:38:03;;;;;;;12.75;10.82;;;7.40;99.90;;;;;;6191039;23;20063;-87
2021/01/19 10:40:30;;;;;;;11.68;10.27;;;7.40;99.90;;;;;;6217281;23;19997;-87
2021/01/19 10:43:18;;;;;;;11.98;10.77;;;7.50;99.90;;;;;;6191315;23;20011;-88
2021/01/19 10:45:51;;;;;;;11.52;10.43;;;7.50;99.90;;;;;;6191371;23;20039;-89
2021/01/19 10:48:21;;;;;;;11.65;10.43;;;7.60;99.90;;;;;;6216667;23;20009;-86
2021/01/19 10:50:50;;;;;;;11.57;10.23;;;7.70;99.90;;;;;;6217323;23;20047;-89
2021/01/19 10:53:44;;;;;;;11.18;9.52;;;7.70;99.90;;;;;;6191366;23;20055;-87
2021/01/19 10:56:14;;;;;;;13.30;9.25;;;7.80;99.90;;;;;;6191001;23;20012;-88
2021/01/19 10:58:43;;;;;;;10.10;8.85;;;7.90;99.90;;;;;;6165862;23;20020;-89
2021/01/19 11:01:12;;;;;;;9.38;7.93;;;7.90;99.90;;;;;;6212483;23;20319;-87
2021/01/19 11:03:40;;;;;;;8.90;7.90;;;8.00;99.90;;;;;;6190098;23;20071;-89
2021/01/19 11:06:08;;;;;;;9.70;7.07;;;8.10;99.90;;;;;;6215212;23;20088;-87
2021/01/19 11:08:37;;;;;;;8.63;7.00;;;8.20;99.90;;;;;;6190028;23;20008;-87
2021/01/19 11:11:06;;;;;;;9.40;7.28;;;8.30;99.90;;;;;;6190216;23;20091;-88
2021/01/19 11:13:32;;;;;;;9.35;6.47;;;8.30;99.90;;;;;;6190722;23;20009;-87
2021/01/19 11:15:58;;;;;;;8.25;6.53;;;8.30;99.90;;;;;;6165135;23;20417;-89
2021/01/19 11:18:24;;;;;;;8.45;5.82;;;8.40;99.90;;;;;;6140282;23;20013;-87
2021/01/19 11:20:50;;;;;;;8.35;6.10;;;8.50;99.90;;;;;;6188031;23;20044;-87
2021/01/19 11:23:25;;;;;;;6.35;4.78;;;8.60;99.90;;;;;;6188799;23;20027;-88
2021/01/19 11:25:53;;;;;;;6.55;5.20;;;8.70;99.90;;;;;;6190029;23;20017;-88
2021/01/19 11:28:19;;;;;;;6.38;4.95;;;8.70;99.90;;;;;;6142314;23;20016;-89
2021/01/19 11:30:48;;;;;;;8.93;5.72;;;8.70;99.90;;;;;;6164581;23;20011;-87
2021/01/19 11:33:14;;;;;;;8.60;5.72;;;8.80;99.90;;;;;;6186678;23;20012;-86
2021/01/19 11:35:40;;;;;;;9.32;5.90;;;8.80;99.90;;;;;;6216370;23;20031;-87
2021/01/19 11:38:07;;;;;;;8.13;5.75;;;8.80;99.90;;;;;;6164800;23;20013;-90
2021/01/19 11:40:35;;;;;;;7.90;6.60;;;8.80;99.90;;;;;;6189421;23;20421;-89
2021/01/19 11:43:03;;;;;;;8.55;6.22;;;8.90;99.90;;;;;;6189263;23;20155;-87
2021/01/19 11:45:29;;;;;;;8.25;6.20;;;8.90;99.90;;;;;;6189152;23;20079;-87
2021/01/19 11:47:55;;;;;;;7.43;6.10;;;8.90;99.90;;;;;;6189600;23;20012;-87
2021/01/19 11:50:28;;;;;;;8.65;6.68;;;8.90;99.90;;;;;;6190081;23;20005;-88
2021/01/19 11:52:58;;;;;;;9.03;7.57;;;8.90;99.90;;;;;;6165420;23;20092;-88
2021/01/19 11:55:26;;;;;;;8.82;6.38;;;9.00;99.90;;;;;;6189283;23;20009;-88
2021/01/19 11:57:55;;;;;;;9.93;6.90;;;9.00;99.90;;;;;;6189396;23;20095;-90
2021/01/19 12:00:23;;;;;;;7.97;6.38;;;9.00;99.90;;;;;;6163986;23;20005;-87
2021/01/19 12:02:49;;;;;;;10.52;7.25;;;9.00;99.90;;;;;;6164919;23;20008;-88
2021/01/19 12:05:20;;;;;;;8.55;6.75;;;9.10;99.90;;;;;;6188952;23;20008;-87
2021/01/19 12:07:48;;;;;;;9.95;6.82;;;9.10;99.90;;;;;;6215799;23;20417;-86
2021/01/19 12:10:16;;;;;;;9.30;6.63;;;9.10;99.90;;;;;;6188708;23;20012;-89
2021/01/19 12:12:43;;;;;;;9.15;6.88;;;9.10;99.90;;;;;;6214849;23;20016;-89
2021/01/19 12:15:09;;;;;;;8.10;6.32;;;9.20;99.90;;;;;;6189128;23;20009;-87
2021/01/19 12:17:35;;;;;;;8.38;6.47;;;9.20;99.90;;;;;;6188097;23;20009;-87
2021/01/19 12:20:01;;;;;;;8.75;6.50;;;9.20;99.90;;;;;;6215448;23;20001;-88
2021/01/19 12:22:28;;;;;;;9.93;7.43;;;9.20;99.90;;;;;;6217198;23;20001;-87
2021/01/19 12:24:55;;;;;;;9.25;7.38;;;9.30;99.90;;;;;;6214095;23;20096;-88
2021/01/19 12:27:20;;;;;;;12.73;8.18;;;9.30;99.90;;;;;;6216894;23;20024;-88
2021/01/19 12:29:46;;;;;;;15.27;9.68;;;9.30;99.90;;;;;;6191131;23;20008;-88
2021/01/19 12:32:17;;;;;;;15.70;10.23;;;9.30;99.90;;;;;;6190857;23;20047;-88
2021/01/19 12:34:44;;;;;;;16.10;11.13;;;9.30;99.90;;;;;;6166523;23;20004;-88
2021/01/19 12:37:11;;;;;;;15.25;12.10;;;9.40;99.90;;;;;;6190166;23;20055;-88
2021/01/19 12:39:37;;;;;;;16.08;11.02;;;9.40;99.90;;;;;;6216516;23;20008;-89
2021/01/19 12:42:03;;;;;;;16.55;11.65;;;9.40;99.90;;;;;;6190187;23;20066;-90
2021/01/19 12:44:29;;;;;;;15.13;11.77;;;9.40;99.90;;;;;;6190870;23;20005;-89
2021/01/19 12:47:06;;;;;;;16.50;11.50;;;9.40;99.90;;;;;;6190130;23;20539;-88
2021/01/19 12:49:39;;;;;;;16.90;9.95;;;9.50;99.90;;;;;;6191516;23;20005;-89
2021/01/19 12:52:10;;;;;;;15.85;10.50;;;9.50;99.90;;;;;;6190992;23;20005;-88
2021/01/19 12:54:36;;;;;;;15.23;9.65;;;9.50;99.90;;;;;;6190549;23;20492;-88
2021/01/19 12:57:02;;;;;;;14.38;9.15;;;9.50;99.90;;;;;;6191221;23;20009;-89
2021/01/19 12:59:32;;;;;;;13.48;9.68;;;9.50;99.90;;;;;;6191716;23;20326;-88
2021/01/19 13:02:03;;;;;;;15.68;10.00;;;9.50;99.90;;;;;;6193499;23;20004;-89
2021/01/19 13:04:29;;;;;;;14.63;9.43;;;9.60;99.90;;;;;;6195361;23;20036;-89
2021/01/19 13:07:02;;;;;;;16.23;9.85;;;9.60;99.90;;;;;;6194873;23;20551;-88
2021/01/19 13:09:29;;;;;;;15.27;9.70;;;9.60;99.90;;;;;;6190055;23;20099;-88
2021/01/19 13:11:55;;;;;;;12.75;9.07;;;9.60;99.90;;;;;;6192213;23;20034;-88